Time;durP1;ratioP1;P1;durP2;ratioP2;P2;SDS_P1;SDS_P2;PMS_P1;PMS_P2;Temp;Humidity;BMP_temperature;BMP_pressure;BME280_temperature;BME280_humidity;BME280_pressure;Samples;Min_cycle;Max_cycle;Signal;HPM_P1;HPM_P2
2023/06/25 00:00:27;;;;;;;11.15;8.25;;;18.30;99.90;;;;;;6250226;22;20442;-76
2023/06/25 00:02:52;;;;;;;11.57;7.57;;;18.40;99.90;;;;;;6301455;22;20008;-76
2023/06/25 00:05:18;;;;;;;11.02;8.25;;;18.20;99.90;;;;;;6275327;22;20012;-77
2023/06/25 00:07:44;;;;;;;11.15;8.32;;;18.30;99.90;;;;;;6301211;22;20055;-77
2023/06/25 00:10:09;;;;;;;13.02;8.73;;;18.30;99.90;;;;;;6301211;22;20016;-76
2023/06/25 00:12:35;;;;;;;11.25;8.77;;;18.30;99.90;;;;;;6301315;22;20326;-76
2023/06/25 00:15:01;;;;;;;11.15;7.82;;;18.30;99.90;;;;;;6224746;22;20011;-77
2023/06/25 00:17:27;;;;;;;8.25;4.10;;;18.30;99.90;;;;;;6275552;22;20012;-76
2023/06/25 00:19:54;;;;;;;5.80;3.28;;;18.40;99.90;;;;;;6275076;22;20012;-76
2023/06/25 00:22:20;;;;;;;6.72;3.67;;;18.30;99.90;;;;;;6224770;22;20050;-77
2023/06/25 00:24:45;;;;;;;7.18;4.50;;;18.30;99.90;;;;;;6274770;22;20011;-76
2023/06/25 00:27:11;;;;;;;9.35;5.43;;;18.30;99.90;;;;;;6275090;22;20133;-75
2023/06/25 00:29:36;;;;;;;6.30;3.55;;;18.20;99.90;;;;;;6300762;22;20018;-76
2023/06/25 00:32:02;;;;;;;7.93;4.60;;;18.20;99.90;;;;;;6249474;22;20012;-77
2023/06/25 00:34:28;;;;;;;6.25;3.92;;;18.20;99.90;;;;;;6301223;22;20042;-77
2023/06/25 00:36:53;;;;;;;7.40;3.78;;;18.20;99.90;;;;;;6224540;22;20012;-77
2023/06/25 00:39:19;;;;;;;5.85;3.40;;;18.20;99.90;;;;;;6275473;22;20073;-76
2023/06/25 00:41:45;;;;;;;5.97;2.75;;;18.20;99.90;;;;;;6224089;22;20372;-77
2023/06/25 00:44:11;;;;;;;3.88;2.35;;;18.20;99.90;;;;;;6275319;22;20092;-76
2023/06/25 00:46:36;;;;;;;6.72;3.20;;;18.30;99.90;;;;;;6249754;22;20011;-76
2023/06/25 00:49:05;;;;;;;8.45;4.18;;;18.20;99.90;;;;;;6300503;22;20015;-76
2023/06/25 00:51:35;;;;;;;7.90;5.38;;;18.20;99.90;;;;;;6249300;22;20012;-76
2023/06/25 00:54:05;;;;;;;6.68;3.95;;;18.20;99.90;;;;;;6223593;22;20042;-76
2023/06/25 00:56:33;;;;;;;7.22;3.88;;;18.10;99.90;;;;;;6222820;22;20061;-76
2023/06/25 00:59:01;;;;;;;6.55;3.60;;;18.00;99.90;;;;;;6223411;22;20012;-76
2023/06/25 01:01:38;;;;;;;6.95;3.60;;;18.00;99.90;;;;;;6248551;22;20068;-77
2023/06/25 01:04:19;;;;;;;3.72;2.33;;;18.00;99.90;;;;;;6249396;22;20043;-77
2023/06/25 01:06:48;;;;;;;3.15;1.80;;;17.90;99.90;;;;;;6248069;22;20070;-77
2023/06/25 01:09:16;;;;;;;6.07;2.83;;;17.90;99.90;;;;;;6249252;22;20050;-77
2023/06/25 01:12:07;;;;;;;5.07;2.58;;;17.90;99.90;;;;;;6248864;22;20050;-77
2023/06/25 01:14:33;;;;;;;5.28;2.80;;;17.90;99.90;;;;;;6249427;22;20050;-77
2023/06/25 01:16:59;;;;;;;3.97;2.22;;;17.80;99.90;;;;;;6248754;22;20019;-77
2023/06/25 01:19:31;;;;;;;3.95;2.15;;;17.80;99.90;;;;;;6273394;22;20004;-77
2023/06/25 01:22:01;;;;;;;3.28;1.90;;;17.80;99.90;;;;;;6249459;22;20518;-76
2023/06/25 01:24:28;;;;;;;3.97;2.40;;;17.70;99.90;;;;;;6223549;22;20373;-77
2023/06/25 01:26:56;;;;;;;2.85;1.58;;;17.70;99.90;;;;;;6223681;22;20043;-77
2023/06/25 01:29:22;;;;;;;4.07;2.15;;;17.80;99.90;;;;;;6222817;22;20015;-77
2023/06/25 01:31:51;;;;;;;3.58;2.22;;;17.70;99.90;;;;;;6248722;22;20022;-76
2023/06/25 01:34:21;;;;;;;3.78;2.13;;;17.70;99.90;;;;;;6249142;22;20015;-75
2023/06/25 01:36:50;;;;;;;5.55;2.10;;;17.60;99.90;;;;;;6223355;22;20016;-77
2023/06/25 01:39:16;;;;;;;4.50;2.60;;;17.50;99.90;;;;;;6249020;22;20004;-77
2023/06/25 01:41:46;;;;;;;4.88;2.70;;;17.40;99.90;;;;;;6248814;22;20378;-77
2023/06/25 01:44:15;;;;;;;8.65;4.82;;;17.30;99.90;;;;;;6248243;22;20043;-77
2023/06/25 01:46:41;;;;;;;8.75;5.97;;;17.30;99.90;;;;;;6224038;22;20018;-77
2023/06/25 01:49:07;;;;;;;12.25;7.78;;;17.40;99.90;;;;;;6221913;22;20047;-78
2023/06/25 01:51:32;;;;;;;14.38;9.68;;;17.40;99.90;;;;;;6249337;22;20077;-77
2023/06/25 01:53:58;;;;;;;6.65;3.75;;;17.40;99.90;;;;;;6299517;22;20011;-77
2023/06/25 01:56:24;;;;;;;5.15;2.85;;;17.40;99.90;;;;;;6300448;22;20018;-76
2023/06/25 01:58:53;;;;;;;5.72;3.03;;;17.40;99.90;;;;;;6249245;22;20008;-77
2023/06/25 02:01:20;;;;;;;9.82;5.38;;;17.40;99.90;;;;;;6222860;22;20008;-77
2023/06/25 02:03:45;;;;;;;4.38;2.65;;;17.30;99.90;;;;;;6223480;22;20015;-77
2023/06/25 02:06:11;;;;;;;5.28;2.70;;;17.30;99.90;;;;;;6273475;22;20015;-77
2023/06/25 02:08:36;;;;;;;8.35;3.85;;;17.30;99.90;;;;;;6300621;22;20008;-77
2023/06/25 02:11:02;;;;;;;6.28;3.80;;;17.30;99.90;;;;;;6246978;22;20020;-78
2023/06/25 02:13:27;;;;;;;9.15;3.97;;;17.20;99.90;;;;;;6248905;22;20081;-77
2023/06/25 02:15:53;;;;;;;10.32;5.57;;;17.20;99.90;;;;;;6274843;22;20022;-77
2023/06/25 02:18:19;;;;;;;7.65;4.13;;;17.20;99.90;;;;;;6328502;22;20019;-77
2023/06/25 02:20:44;;;;;;;10.98;7.18;;;17.10;99.90;;;;;;6247809;22;20446;-77
2023/06/25 02:23:10;;;;;;;8.48;5.70;;;17.10;99.90;;;;;;6327844;22;20083;-77
2023/06/25 02:25:35;;;;;;;7.72;2.97;;;17.10;99.90;;;;;;6301166;22;20373;-77
2023/06/25 02:28:01;;;;;;;6.03;3.35;;;17.10;99.90;;;;;;6328214;22;20073;-77
2023/06/25 02:30:27;;;;;;;7.13;3.80;;;17.10;99.90;;;;;;6250197;22;20011;-77
2023/06/25 02:32:52;;;;;;;8.38;3.28;;;17.10;99.90;;;;;;6328292;22;20011;-77
2023/06/25 02:35:18;;;;;;;7.00;3.15;;;17.00;99.90;;;;;;6326980;22;20018;-77
2023/06/25 02:37:43;;;;;;;6.13;3.33;;;17.00;99.90;;;;;;6251178;22;20019;-77
2023/06/25 02:40:10;;;;;;;8.10;4.53;;;16.90;99.90;;;;;;6327456;22;20014;-78
2023/06/25 02:42:35;;;;;;;9.02;5.68;;;16.90;99.90;;;;;;6276393;22;20012;-77
2023/06/25 02:45:01;;;;;;;9.35;6.13;;;16.90;99.90;;;;;;6328003;22;20008;-77
2023/06/25 02:47:27;;;;;;;10.95;6.35;;;16.90;99.90;;;;;;6251085;22;20007;-77
2023/06/25 02:49:52;;;;;;;7.70;4.60;;;16.90;99.90;;;;;;6301629;22;20346;-77
2023/06/25 02:52:18;;;;;;;10.20;4.82;;;16.90;99.90;;;;;;6326944;22;20018;-77
2023/06/25 02:54:43;;;;;;;8.43;5.75;;;16.90;99.90;;;;;;6301693;22;20004;-77
2023/06/25 02:57:09;;;;;;;10.85;7.03;;;16.90;99.90;;;;;;6250771;22;20042;-77
2023/06/25 02:59:34;;;;;;;10.95;6.93;;;16.80;99.90;;;;;;6275757;22;20043;-77
2023/06/25 03:02:00;;;;;;;11.23;7.70;;;16.80;99.90;;;;;;6300862;22;20007;-77
2023/06/25 03:04:25;;;;;;;7.85;4.32;;;16.80;99.90;;;;;;6327139;22;20011;-77
2023/06/25 03:06:51;;;;;;;6.88;3.22;;;16.80;99.90;;;;;;6327507;22;20104;-77
2023/06/25 03:09:16;;;;;;;6.57;3.72;;;16.80;99.90;;;;;;6275698;22;20026;-77
2023/06/25 03:11:42;;;;;;;6.03;2.80;;;16.90;99.90;;;;;;6249671;22;20008;-78
2023/06/25 03:14:08;;;;;;;5.10;2.45;;;16.80;99.90;;;;;;6250295;22;20016;-77
2023/06/25 03:16:33;;;;;;;6.13;3.35;;;16.80;99.90;;;;;;6274956;22;20019;-77
2023/06/25 03:19:00;;;;;;;7.70;4.05;;;16.80;99.90;;;;;;6250699;22;20011;-78
2023/06/25 03:21:26;;;;;;;6.90;4.00;;;16.80;99.90;;;;;;6274529;22;20022;-77
2023/06/25 03:23:52;;;;;;;8.30;4.13;;;16.80;99.90;;;;;;6275633;22;20011;-77
2023/06/25 03:26:17;;;;;;;7.97;4.32;;;16.80;99.90;;;;;;6249991;22;20007;-77
2023/06/25 03:28:43;;;;;;;7.28;4.55;;;16.80;99.90;;;;;;6275261;22;20090;-77
2023/06/25 03:31:08;;;;;;;8.88;5.50;;;16.70;99.90;;;;;;6301522;22;20019;-77
2023/06/25 03:33:34;;;;;;;9.90;6.53;;;16.70;99.90;;;;;;6275647;22;20007;-77
2023/06/25 03:36:00;;;;;;;10.38;6.82;;;16.70;99.90;;;;;;6326464;22;20022;-78
2023/06/25 03:38:25;;;;;;;9.88;6.78;;;16.70;99.90;;;;;;6249960;22;20012;-77
2023/06/25 03:40:51;;;;;;;10.85;7.30;;;16.60;99.90;;;;;;6327435;22;20011;-77
2023/06/25 03:43:16;;;;;;;11.45;7.70;;;16.60;99.90;;;;;;6275424;22;20446;-77
2023/06/25 03:45:42;;;;;;;10.65;7.10;;;16.60;99.90;;;;;;6249711;22;20101;-77
2023/06/25 03:48:07;;;;;;;11.13;7.10;;;16.60;99.90;;;;;;6275526;22;20012;-77
2023/06/25 03:50:33;;;;;;;12.32;8.98;;;16.60;99.90;;;;;;6300649;22;20018;-77
2023/06/25 03:53:00;;;;;;;12.68;8.10;;;16.60;99.90;;;;;;6275220;22;20016;-77
2023/06/25 03:55:26;;;;;;;11.85;8.18;;;16.60;99.90;;;;;;6327571;22;20044;-77
2023/06/25 03:57:51;;;;;;;10.95;7.32;;;16.70;99.90;;;;;;6249830;22;20057;-78
2023/06/25 04:00:17;;;;;;;11.00;7.00;;;16.70;99.90;;;;;;6249151;22;20062;-77
2023/06/25 04:02:43;;;;;;;11.30;6.80;;;16.70;99.90;;;;;;6275189;22;20026;-78
2023/06/25 04:05:08;;;;;;;10.15;7.10;;;16.70;99.90;;;;;;6300385;22;20016;-78
2023/06/25 04:07:34;;;;;;;12.18;6.97;;;16.60;99.90;;;;;;6249606;22;20320;-78
2023/06/25 04:09:59;;;;;;;11.55;8.30;;;16.70;99.90;;;;;;6325944;22;20099;-77
2023/06/25 04:12:26;;;;;;;13.48;10.02;;;16.70;99.90;;;;;;6275212;22;20098;-78
2023/06/25 04:14:52;;;;;;;13.10;9.52;;;16.70;99.90;;;;;;6249686;22;20061;-78
2023/06/25 04:17:18;;;;;;;13.10;9.57;;;16.60;99.90;;;;;;6248949;22;20007;-78
2023/06/25 04:19:44;;;;;;;14.35;9.90;;;16.60;99.90;;;;;;6300978;22;20008;-78
2023/06/25 04:22:09;;;;;;;13.38;9.95;;;16.70;99.90;;;;;;6274375;22;20015;-79
2023/06/25 04:24:35;;;;;;;13.50;9.48;;;16.80;99.90;;;;;;6301280;22;20579;-78
2023/06/25 04:27:00;;;;;;;15.65;11.68;;;16.70;99.90;;;;;;6249125;22;20341;-78
2023/06/25 04:29:26;;;;;;;11.70;8.32;;;16.70;99.90;;;;;;6274323;22;20069;-77
2023/06/25 04:31:51;;;;;;;13.77;9.55;;;16.80;99.90;;;;;;6249970;22;20008;-77
2023/06/25 04:34:18;;;;;;;12.57;9.52;;;16.80;99.90;;;;;;6326431;22;20019;-77
2023/06/25 04:36:44;;;;;;;13.93;9.43;;;16.90;99.90;;;;;;6275051;22;20081;-77
2023/06/25 04:39:10;;;;;;;12.60;8.93;;;16.90;99.90;;;;;;6274326;22;20039;-78
2023/06/25 04:41:35;;;;;;;13.60;10.35;;;16.90;99.90;;;;;;6300765;22;20011;-77
2023/06/25 04:44:01;;;;;;;14.00;8.68;;;17.00;99.90;;;;;;6273914;22;20011;-77
2023/06/25 04:46:26;;;;;;;13.45;10.05;;;17.00;99.90;;;;;;6275007;22;20497;-77
2023/06/25 04:48:52;;;;;;;14.38;10.07;;;17.00;99.90;;;;;;6248579;22;20067;-77
2023/06/25 04:51:17;;;;;;;14.88;10.52;;;17.10;99.90;;;;;;6274288;22;20091;-77
2023/06/25 04:53:43;;;;;;;14.80;10.75;;;17.20;99.90;;;;;;6275269;22;20331;-77
2023/06/25 04:56:08;;;;;;;15.68;11.50;;;17.20;99.90;;;;;;6248838;22;20018;-77
2023/06/25 04:58:35;;;;;;;16.95;11.10;;;17.20;99.90;;;;;;6274792;22;20061;-78
2023/06/25 05:01:02;;;;;;;13.90;10.68;;;17.30;99.90;;;;;;6248371;22;20162;-78
2023/06/25 05:03:28;;;;;;;15.32;11.23;;;17.30;99.90;;;;;;6274616;22;20008;-77
2023/06/25 05:05:54;;;;;;;14.10;10.40;;;17.30;99.90;;;;;;6248746;22;20337;-77
2023/06/25 05:08:20;;;;;;;14.38;9.48;;;17.40;99.90;;;;;;6249165;22;20015;-77
2023/06/25 05:10:46;;;;;;;14.18;10.48;;;17.50;99.90;;;;;;6274188;22;20022;-77
2023/06/25 05:13:11;;;;;;;14.13;10.45;;;17.60;99.90;;;;;;6274488;22;20069;-78
2023/06/25 05:15:39;;;;;;;14.45;10.88;;;17.60;99.90;;;;;;6274917;22;20023;-77
2023/06/25 05:18:07;;;;;;;14.13;9.68;;;17.80;99.90;;;;;;6247948;22;20008;-77
2023/06/25 05:20:35;;;;;;;14.82;10.13;;;17.90;99.90;;;;;;6274617;22;20446;-77
2023/06/25 05:23:03;;;;;;;15.95;10.43;;;17.90;99.90;;;;;;6248750;22;20054;-77
2023/06/25 05:25:28;;;;;;;15.95;10.65;;;18.10;99.90;;;;;;6249448;22;20008;-77
2023/06/25 05:27:54;;;;;;;15.20;9.30;;;18.20;99.90;;;;;;6273145;22;20433;-77
2023/06/25 05:30:19;;;;;;;14.95;10.20;;;18.20;99.90;;;;;;6324668;22;20019;-77
2023/06/25 05:32:45;;;;;;;14.18;9.90;;;18.40;99.90;;;;;;6249177;22;20007;-77
2023/06/25 05:35:10;;;;;;;13.77;8.93;;;18.50;99.90;;;;;;6300014;22;20071;-77
2023/06/25 05:37:36;;;;;;;13.27;9.63;;;18.60;99.90;;;;;;6248958;22;20023;-77
2023/06/25 05:40:02;;;;;;;14.85;10.40;;;18.70;99.90;;;;;;6273362;22;20004;-76
2023/06/25 05:42:29;;;;;;;17.08;10.43;;;18.80;99.90;;;;;;6274890;22;20007;-76
2023/06/25 05:44:54;;;;;;;13.85;10.07;;;18.90;99.90;;;;;;6247981;22;20008;-77
2023/06/25 05:47:20;;;;;;;13.18;9.50;;;19.00;99.90;;;;;;6274472;22;20084;-76
2023/06/25 05:49:45;;;;;;;15.23;9.57;;;19.10;99.90;;;;;;6325318;22;20019;-77
2023/06/25 05:52:11;;;;;;;13.60;9.45;;;19.20;99.90;;;;;;6276684;22;20007;-79
2023/06/25 05:54:36;;;;;;;13.60;9.00;;;19.30;99.90;;;;;;6241837;22;20042;-86
2023/06/25 05:57:02;;;;;;;13.23;9.20;;;19.40;99.90;;;;;;6301621;22;20019;-76
2023/06/25 05:59:28;;;;;;;14.48;10.30;;;19.50;99.90;;;;;;6276904;22;20019;-77
2023/06/25 06:01:53;;;;;;;13.77;9.25;;;19.70;99.90;;;;;;6251330;22;20003;-77
2023/06/25 06:04:19;;;;;;;14.80;10.40;;;19.80;99.90;;;;;;6302732;22;20012;-77
2023/06/25 06:06:44;;;;;;;13.30;9.73;;;19.90;99.90;;;;;;6276345;22;20078;-77
2023/06/25 06:09:10;;;;;;;17.17;10.20;;;20.00;99.90;;;;;;6251360;22;20090;-77
2023/06/25 06:11:36;;;;;;;14.25;10.38;;;20.20;99.90;;;;;;6251390;22;20349;-77
2023/06/25 06:14:01;;;;;;;15.93;10.18;;;20.30;99.90;;;;;;6251384;22;20011;-77
2023/06/25 06:16:27;;;;;;;15.88;10.82;;;20.40;99.90;;;;;;6250471;22;20403;-77
2023/06/25 06:18:52;;;;;;;16.15;10.88;;;20.50;99.90;;;;;;6276424;22;20461;-77
2023/06/25 06:21:18;;;;;;;14.60;10.73;;;20.60;99.90;;;;;;6276788;22;20003;-77
2023/06/25 06:23:43;;;;;;;13.68;10.50;;;20.70;99.90;;;;;;6251092;22;20342;-77
2023/06/25 06:26:09;;;;;;;14.18;10.70;;;20.80;99.90;;;;;;6251123;22;20007;-76
2023/06/25 06:28:35;;;;;;;15.60;11.82;;;20.90;99.90;;;;;;6276008;22;20012;-77
2023/06/25 06:31:00;;;;;;;16.98;11.85;;;21.00;99.90;;;;;;6276747;22;20015;-77
2023/06/25 06:33:26;;;;;;;19.45;11.40;;;21.10;99.90;;;;;;6276734;22;20415;-76
2023/06/25 06:35:51;;;;;;;17.10;12.25;;;21.20;99.90;;;;;;6246928;22;20090;-76
2023/06/25 06:38:17;;;;;;;16.98;12.52;;;21.20;99.90;;;;;;6276487;22;20011;-76
2023/06/25 06:40:42;;;;;;;16.42;11.57;;;21.30;99.90;;;;;;6246290;22;20083;-76
2023/06/25 06:43:08;;;;;;;14.65;12.15;;;21.50;99.90;;;;;;6266005;22;20441;-76
2023/06/25 06:45:33;;;;;;;17.20;12.55;;;21.60;99.90;;;;;;6238092;22;20450;-78
2023/06/25 06:47:59;;;;;;;15.35;11.45;;;21.70;99.90;;;;;;6266422;22;20034;-77
2023/06/25 06:50:24;;;;;;;15.40;12.15;;;21.80;99.90;;;;;;6270084;22;20016;-77
2023/06/25 06:52:50;;;;;;;14.77;11.48;;;21.90;99.90;;;;;;6250933;22;20445;-77
2023/06/25 06:55:16;;;;;;;16.45;13.05;;;22.00;99.90;;;;;;6276352;22;20020;-77
2023/06/25 06:57:41;;;;;;;15.82;12.07;;;22.10;99.90;;;;;;6249039;22;20011;-85
2023/06/25 07:00:09;;;;;;;17.60;13.65;;;22.20;99.90;;;;;;6240845;22;20015;-78
2023/06/25 07:02:34;;;;;;;18.17;13.52;;;22.20;99.90;;;;;;6264829;22;20012;-77
2023/06/25 07:05:00;;;;;;;16.15;12.82;;;22.30;99.90;;;;;;6243213;22;20019;-76
2023/06/25 07:07:26;;;;;;;14.45;11.55;;;22.40;99.90;;;;;;6238480;22;20030;-77
2023/06/25 07:09:53;;;;;;;15.32;12.85;;;22.50;99.90;;;;;;6264141;22;20023;-77
2023/06/25 07:12:20;;;;;;;16.00;12.75;;;22.60;99.90;;;;;;6240385;22;20454;-77
2023/06/25 07:14:45;;;;;;;15.82;13.48;;;22.60;99.90;;;;;;6263790;22;20541;-77
2023/06/25 07:17:11;;;;;;;16.33;12.88;;;22.80;99.90;;;;;;6268225;22;20043;-77
2023/06/25 07:19:36;;;;;;;17.25;13.15;;;22.80;99.90;;;;;;6238717;22;20090;-77
2023/06/25 07:22:02;;;;;;;17.08;13.90;;;23.00;99.90;;;;;;6240759;22;20338;-77
2023/06/25 07:24:28;;;;;;;15.88;13.02;;;23.00;99.90;;;;;;6241106;22;20015;-77
2023/06/25 07:26:53;;;;;;;18.67;14.25;;;23.10;99.90;;;;;;6263708;22;20497;-77
2023/06/25 07:29:19;;;;;;;15.77;13.98;;;23.10;99.90;;;;;;6264572;22;20026;-77
2023/06/25 07:31:44;;;;;;;17.90;14.43;;;23.30;99.90;;;;;;6238585;22;20019;-77
2023/06/25 07:34:10;;;;;;;17.23;14.40;;;23.30;99.90;;;;;;6238638;22;20094;-78
2023/06/25 07:36:36;;;;;;;16.55;14.02;;;23.30;99.90;;;;;;6240535;22;20018;-77
2023/06/25 07:39:03;;;;;;;17.23;13.73;;;23.40;99.90;;;;;;6242205;22;20053;-77
2023/06/25 07:41:29;;;;;;;16.23;13.65;;;23.40;99.90;;;;;;6247415;22;20380;-77
2023/06/25 07:43:55;;;;;;;18.05;13.65;;;23.60;99.90;;;;;;6249249;22;20087;-82
2023/06/25 07:46:21;;;;;;;16.17;14.38;;;23.70;99.90;;;;;;6249310;22;20090;-78
2023/06/25 07:48:47;;;;;;;17.33;14.15;;;23.80;99.90;;;;;;6250081;22;20023;-78
2023/06/25 07:51:12;;;;;;;16.65;14.45;;;23.90;99.90;;;;;;6275834;22;20008;-78
2023/06/25 07:53:38;;;;;;;15.93;13.77;;;23.90;99.90;;;;;;6275614;22;20023;-77
2023/06/25 07:56:04;;;;;;;15.70;13.70;;;23.80;99.90;;;;;;6275762;22;20012;-77
2023/06/25 07:58:30;;;;;;;15.55;13.68;;;23.80;99.90;;;;;;6275557;22;20057;-78
2023/06/25 08:00:55;;;;;;;17.48;14.05;;;23.90;99.90;;;;;;6249773;22;20008;-77
2023/06/25 08:03:24;;;;;;;19.30;15.32;;;23.90;99.90;;;;;;6275626;22;20319;-77
2023/06/25 08:05:49;;;;;;;16.90;13.20;;;24.00;99.90;;;;;;6275812;22;20020;-77
2023/06/25 08:08:15;;;;;;;14.55;12.95;;;24.00;99.90;;;;;;6275410;22;20026;-80
2023/06/25 08:10:41;;;;;;;17.42;12.68;;;24.20;99.90;;;;;;6250240;22;20523;-76
2023/06/25 08:13:06;;;;;;;16.33;13.07;;;24.30;99.90;;;;;;6249735;22;20018;-76
2023/06/25 08:15:32;;;;;;;13.68;11.93;;;24.50;99.90;;;;;;6275196;22;20016;-76
2023/06/25 08:17:57;;;;;;;14.05;11.65;;;24.70;99.90;;;;;;6274765;22;20007;-77
2023/06/25 08:20:23;;;;;;;16.25;14.13;;;24.80;99.90;;;;;;6249540;22;20008;-76
2023/06/25 08:22:48;;;;;;;13.50;11.32;;;24.90;99.90;;;;;;6250075;22;20007;-77
2023/06/25 08:25:25;;;;;;;12.77;10.60;;;24.90;99.90;;;;;;6249732;22;20012;-77
2023/06/25 08:27:50;;;;;;;13.75;10.63;;;25.00;99.90;;;;;;6274756;22;20008;-77
2023/06/25 08:30:16;;;;;;;12.55;11.00;;;25.00;99.90;;;;;;6274568;22;20403;-77
2023/06/25 08:32:42;;;;;;;13.90;12.35;;;25.10;99.90;;;;;;6250008;22;20004;-76
2023/06/25 08:35:08;;;;;;;12.35;11.00;;;25.20;99.90;;;;;;6250007;22;20030;-76
2023/06/25 08:37:34;;;;;;;13.80;11.65;;;25.20;99.90;;;;;;6249467;22;20507;-77
2023/06/25 08:39:59;;;;;;;12.00;10.05;;;25.40;99.90;;;;;;6275488;22;20081;-76
2023/06/25 08:42:26;;;;;;;14.07;10.48;;;25.40;99.90;;;;;;6275236;22;20018;-76
2023/06/25 08:44:52;;;;;;;12.98;9.98;;;25.50;99.90;;;;;;6275394;22;20046;-76
2023/06/25 08:47:19;;;;;;;13.75;10.10;;;25.60;99.90;;;;;;6325299;22;20012;-76
2023/06/25 08:49:49;;;;;;;16.55;10.52;;;25.60;99.90;;;;;;6249378;22;20481;-76
2023/06/25 08:52:18;;;;;;;11.35;8.65;;;25.70;99.90;;;;;;6249693;22;20473;-78
2023/06/25 08:54:44;;;;;;;12.48;9.40;;;25.80;99.90;;;;;;6275506;22;20342;-78
2023/06/25 08:57:10;;;;;;;12.05;9.02;;;25.80;99.90;;;;;;6249197;22;20463;-77
2023/06/25 08:59:36;;;;;;;15.85;10.05;;;25.90;99.90;;;;;;6249209;22;20050;-77
2023/06/25 09:02:02;;;;;;;11.40;9.95;;;25.90;99.90;;;;;;6274499;22;20468;-77
2023/06/25 09:04:28;;;;;;;11.45;8.82;;;25.90;99.90;;;;;;6327257;22;20008;-77
2023/06/25 09:06:54;;;;;;;11.85;9.02;;;26.00;99.90;;;;;;6300835;22;20396;-77
2023/06/25 09:09:19;;;;;;;9.70;7.60;;;26.10;99.90;;;;;;6326581;22;20062;-77
2023/06/25 09:11:45;;;;;;;10.23;7.53;;;26.20;99.90;;;;;;6300884;22;20015;-77
2023/06/25 09:14:10;;;;;;;9.70;7.03;;;26.30;99.90;;;;;;6327065;22;20014;-77
2023/06/25 09:16:47;;;;;;;9.18;6.22;;;26.30;99.90;;;;;;6326588;22;20141;-74
2023/06/25 09:19:19;;;;;;;11.82;6.72;;;26.30;99.90;;;;;;6249130;22;20015;-77
2023/06/25 09:21:46;;;;;;;11.35;7.07;;;26.30;99.90;;;;;;6248958;22;20011;-77
2023/06/25 09:24:16;;;;;;;9.60;7.35;;;26.40;99.90;;;;;;6248606;22;20007;-77
2023/06/25 09:26:52;;;;;;;8.45;5.63;;;26.50;99.90;;;;;;6274900;22;20015;-77
2023/06/25 09:29:20;;;;;;;8.25;5.35;;;26.70;99.90;;;;;;6274663;22;20094;-78
2023/06/25 09:31:47;;;;;;;7.45;4.97;;;26.70;99.90;;;;;;6300814;22;20008;-78
2023/06/25 09:34:15;;;;;;;8.30;6.07;;;26.80;98.90;;;;;;6248476;22;20012;-78
2023/06/25 09:36:41;;;;;;;7.13;5.10;;;26.90;99.90;;;;;;6274156;22;20018;-78
2023/06/25 09:39:08;;;;;;;10.48;5.97;;;26.90;99.90;;;;;;6275232;22;20016;-78
2023/06/25 09:41:35;;;;;;;7.97;5.75;;;26.90;99.90;;;;;;6273414;22;20012;-76
2023/06/25 09:44:03;;;;;;;9.38;5.93;;;26.90;99.90;;;;;;6274564;22;20088;-77
2023/06/25 09:46:34;;;;;;;7.85;5.10;;;26.90;99.30;;;;;;6273891;22;20339;-77
2023/06/25 09:49:03;;;;;;;8.67;6.30;;;26.90;99.90;;;;;;6248839;22;20012;-77
2023/06/25 09:52:14;;;;;;;8.00;4.80;;;27.10;97.40;;;;;;6274841;22;20016;-77
2023/06/25 09:54:42;;;;;;;8.27;5.45;;;27.00;97.90;;;;;;6274477;22;20011;-77
2023/06/25 09:57:12;;;;;;;9.68;5.85;;;27.10;99.70;;;;;;6274714;22;20454;-78
2023/06/25 09:59:38;;;;;;;8.65;5.22;;;27.10;99.90;;;;;;6248909;22;20019;-77
2023/06/25 10:02:06;;;;;;;8.88;5.05;;;27.10;99.60;;;;;;6248901;22;20003;-77
2023/06/25 10:04:33;;;;;;;8.90;4.50;;;27.20;99.10;;;;;;6273844;22;20011;-77
2023/06/25 10:07:00;;;;;;;8.50;4.75;;;27.20;99.30;;;;;;6274157;22;20137;-77
2023/06/25 10:09:25;;;;;;;7.43;4.93;;;27.20;96.90;;;;;;6248350;22;20019;-77
2023/06/25 10:11:52;;;;;;;7.82;4.90;;;27.30;97.50;;;;;;6326520;22;20034;-78
2023/06/25 10:14:18;;;;;;;8.73;4.53;;;27.40;97.30;;;;;;6274450;22;20341;-77
2023/06/25 10:16:55;;;;;;;6.60;4.35;;;27.50;96.60;;;;;;6299369;22;20051;-77
2023/06/25 10:19:25;;;;;;;6.95;4.25;;;27.50;95.50;;;;;;6248850;22;20454;-77
2023/06/25 10:22:16;;;;;;;9.23;5.20;;;27.50;94.40;;;;;;6248667;22;20011;-77
2023/06/25 10:24:46;;;;;;;7.40;5.05;;;27.60;96.80;;;;;;6271094;22;20014;-77
2023/06/25 10:27:24;;;;;;;6.93;4.45;;;27.60;96.70;;;;;;6273726;22;20046;-77
2023/06/25 10:29:50;;;;;;;7.75;4.97;;;27.60;97.20;;;;;;6326001;22;20519;-77
2023/06/25 10:32:23;;;;;;;7.85;4.78;;;27.70;97.20;;;;;;6273395;22;20358;-77
2023/06/25 10:35:00;;;;;;;8.63;5.10;;;27.70;97.00;;;;;;6273865;22;20012;-77
2023/06/25 10:37:30;;;;;;;7.75;5.10;;;27.80;96.30;;;;;;6249794;22;20037;-77
2023/06/25 10:40:04;;;;;;;7.55;4.72;;;27.80;96.60;;;;;;6250783;22;20116;-78
2023/06/25 10:42:31;;;;;;;8.13;4.43;;;27.90;95.60;;;;;;6275116;22;20014;-77
2023/06/25 10:44:57;;;;;;;9.00;4.18;;;27.90;95.70;;;;;;6275355;22;20012;-77
2023/06/25 10:47:22;;;;;;;6.72;4.13;;;28.00;93.80;;;;;;6250491;22;20043;-77
2023/06/25 10:49:48;;;;;;;7.93;4.40;;;28.00;95.10;;;;;;6327373;22;20065;-77
2023/06/25 10:52:14;;;;;;;6.80;3.85;;;28.20;92.40;;;;;;6275241;22;20327;-78
2023/06/25 10:54:40;;;;;;;7.30;3.90;;;28.30;91.50;;;;;;6275276;22;20094;-78
2023/06/25 10:57:13;;;;;;;6.13;3.80;;;28.20;92.30;;;;;;6250525;22;20007;-77
2023/06/25 10:59:39;;;;;;;6.43;4.05;;;28.10;92.30;;;;;;6249975;22;20008;-77
2023/06/25 11:02:17;;;;;;;7.95;4.43;;;28.10;92.80;;;;;;6274224;22;20014;-77
2023/06/25 11:04:51;;;;;;;8.25;4.97;;;28.00;93.60;;;;;;6273878;22;20007;-78
2023/06/25 11:07:18;;;;;;;6.88;4.47;;;28.20;93.00;;;;;;6274901;22;20076;-77
2023/06/25 11:09:45;;;;;;;6.95;4.20;;;28.20;92.60;;;;;;6249762;22;20008;-77
2023/06/25 11:12:10;;;;;;;7.35;4.18;;;28.20;93.20;;;;;;6274985;22;20022;-77
2023/06/25 11:14:36;;;;;;;7.78;3.92;;;28.20;93.30;;;;;;6327040;22;20015;-77
2023/06/25 11:17:01;;;;;;;6.93;4.03;;;28.20;91.80;;;;;;6250302;22;20346;-76
2023/06/25 11:19:29;;;;;;;6.95;3.70;;;28.20;91.90;;;;;;6249740;22;20015;-77
2023/06/25 11:21:54;;;;;;;6.78;4.13;;;28.40;90.50;;;;;;6249797;22;20090;-76
2023/06/25 11:24:20;;;;;;;7.70;3.70;;;28.40;90.80;;;;;;6250045;22;20039;-77
2023/06/25 11:26:46;;;;;;;7.25;3.80;;;28.50;90.20;;;;;;6249399;22;20066;-77
2023/06/25 11:29:12;;;;;;;6.45;3.85;;;28.50;91.00;;;;;;6301108;22;20061;-76
2023/06/25 11:31:48;;;;;;;6.18;3.55;;;28.50;91.60;;;;;;6249234;22;20462;-77
2023/06/25 11:34:21;;;;;;;6.15;3.90;;;28.50;90.80;;;;;;6275200;22;20319;-77
2023/06/25 11:36:47;;;;;;;6.60;4.07;;;28.50;87.70;;;;;;6249623;22;20090;-77
2023/06/25 11:39:13;;;;;;;7.80;4.13;;;28.50;85.70;;;;;;6300554;22;20011;-77
2023/06/25 11:41:39;;;;;;;6.63;4.00;;;28.60;81.80;;;;;;6249593;22;20468;-77
2023/06/25 11:44:21;;;;;;;7.50;4.20;;;28.60;85.50;;;;;;6275502;22;20074;-77
2023/06/25 11:46:50;;;;;;;7.32;3.95;;;28.50;90.00;;;;;;6275507;22;20353;-78
2023/06/25 11:49:18;;;;;;;7.32;4.03;;;28.60;87.30;;;;;;6275105;22;20030;-77
2023/06/25 11:51:44;;;;;;;6.75;3.88;;;28.50;90.10;;;;;;6275062;22;20043;-77
2023/06/25 11:54:09;;;;;;;7.78;3.95;;;28.50;89.50;;;;;;6275433;22;20102;-77
2023/06/25 11:56:35;;;;;;;8.43;4.40;;;28.40;88.60;;;;;;6273440;22;20019;-78
2023/06/25 11:59:01;;;;;;;7.57;3.97;;;28.50;86.10;;;;;;6300855;22;20015;-78
2023/06/25 12:01:26;;;;;;;9.02;4.25;;;28.50;87.20;;;;;;6327161;22;20012;-77
2023/06/25 12:03:52;;;;;;;6.63;3.63;;;28.50;86.60;;;;;;6249025;22;20008;-78
2023/06/25 12:06:18;;;;;;;6.80;4.05;;;28.50;86.60;;;;;;6325272;22;20073;-78
2023/06/25 12:08:43;;;;;;;7.65;4.20;;;28.50;84.80;;;;;;6326048;22;20099;-77
2023/06/25 12:11:09;;;;;;;7.40;4.28;;;28.50;87.10;;;;;;6300648;22;20019;-77
2023/06/25 12:13:34;;;;;;;6.78;4.20;;;28.40;86.70;;;;;;6275226;22;20462;-78
2023/06/25 12:16:00;;;;;;;6.93;4.25;;;28.40;83.80;;;;;;6274342;22;20376;-77
2023/06/25 12:18:25;;;;;;;7.30;4.25;;;28.50;84.80;;;;;;6326915;22;20035;-77
2023/06/25 12:20:51;;;;;;;6.88;4.47;;;28.50;86.30;;;;;;6274750;22;20078;-77
2023/06/25 12:23:16;;;;;;;7.28;4.00;;;28.50;80.70;;;;;;6300759;22;20011;-78
2023/06/25 12:25:42;;;;;;;7.25;4.10;;;28.50;82.60;;;;;;6300496;22;20017;-77
2023/06/25 12:28:07;;;;;;;6.90;4.00;;;28.40;84.40;;;;;;6249758;22;20011;-78
2023/06/25 12:30:33;;;;;;;6.90;4.10;;;28.50;83.30;;;;;;6274460;22;20019;-77
2023/06/25 12:32:58;;;;;;;8.93;4.60;;;28.50;84.20;;;;;;6249296;22;20018;-78
2023/06/25 12:35:24;;;;;;;7.95;4.00;;;28.50;82.30;;;;;;6248743;22;20099;-77